createdAt,value
2022-09-20T00:01:14.128Z,100796.88
2022-09-20T00:03:45.589Z,100794.34
2022-09-20T00:06:18.280Z,100791.16
2022-09-20T00:08:45.006Z,100791.91
2022-09-20T00:11:18.380Z,100795.38
2022-09-20T00:13:47.297Z,100790.81
2022-09-20T00:16:17.038Z,100798.06
2022-09-20T00:18:43.757Z,100798.63
2022-09-20T00:21:22.110Z,100807.00
2022-09-20T00:23:48.782Z,100815.09
2022-09-20T00:26:15.485Z,100807.19
2022-09-20T00:28:44.071Z,100805.69
2022-09-20T00:31:11.889Z,100805.59
2022-09-20T00:33:57.520Z,100803.06
2022-09-20T00:36:24.272Z,100811.81
2022-09-20T00:39:01.083Z,100807.94
2022-09-20T00:41:28.891Z,100812.94
2022-09-20T00:43:56.146Z,100818.34
2022-09-20T00:46:44.957Z,100822.63
2022-09-20T00:49:26.664Z,100819.34
2022-09-20T00:52:00.938Z,100821.13
2022-09-20T00:54:30.361Z,100815.06
2022-09-20T00:56:57.980Z,100819.66
2022-09-20T00:59:30.295Z,100821.31
2022-09-20T01:02:06.647Z,100817.13
2022-09-20T01:04:35.814Z,100817.88
2022-09-20T01:07:05.229Z,100827.47
2022-09-20T01:09:31.803Z,100819.25
2022-09-20T01:12:01.722Z,100809.47
2022-09-20T01:14:28.571Z,100821.06
2022-09-20T01:16:57.766Z,100820.25
2022-09-20T01:19:33.971Z,100821.06
2022-09-20T01:22:06.890Z,100830.66
2022-09-20T01:25:16.901Z,100821.06
2022-09-20T01:27:52.339Z,100819.16
2022-09-20T01:30:26.153Z,100825.34
2022-09-20T01:33:16.434Z,100823.69
2022-09-20T01:35:46.837Z,100829.09
2022-09-20T01:38:34.589Z,100828.22
2022-09-20T01:41:12.369Z,100830.25
2022-09-20T01:43:55.759Z,100818.91
2022-09-20T01:46:34.486Z,100829.31
2022-09-20T01:49:16.146Z,100837.38
2022-09-20T01:51:56.425Z,100837.47
2022-09-20T01:54:47.657Z,100844.34
2022-09-20T01:57:27.208Z,100837.28
2022-09-20T01:59:54.303Z,100848.94
2022-09-20T02:02:42.601Z,100843.44
2022-09-20T02:05:35.689Z,100844.31
2022-09-20T02:08:10.193Z,100848.75
2022-09-20T02:11:12.183Z,100846.81
2022-09-20T02:14:06.424Z,100853.63
2022-09-20T02:16:45.186Z,100847.31
2022-09-20T02:19:41.430Z,100858.38
2022-09-20T02:22:31.396Z,100855.59
2022-09-20T02:25:22.897Z,100858.03
2022-09-20T02:28:04.362Z,100858.41
2022-09-20T02:31:10.340Z,100858.22
2022-09-20T02:34:15.429Z,100873.13
2022-09-20T02:36:57.316Z,100872.63
2022-09-20T02:39:36.090Z,100866.25
2022-09-20T02:42:25.237Z,100886.25
2022-09-20T02:45:14.024Z,100876.19
2022-09-20T02:47:43.372Z,100881.41
2022-09-20T02:50:45.373Z,100884.09
2022-09-20T02:53:31.017Z,100888.22
2022-09-20T02:56:19.472Z,100882.91
2022-09-20T02:59:01.404Z,100893.13
2022-09-20T03:01:45.806Z,100883.94
2022-09-20T03:04:18.287Z,100885.44
2022-09-20T03:06:55.531Z,100893.94
2022-09-20T03:09:40.499Z,100893.56
2022-09-20T03:12:32.449Z,100900.28
2022-09-20T03:15:30.741Z,100899.53
2022-09-20T03:18:06.565Z,100896.16
2022-09-20T03:20:50.434Z,100902.22
2022-09-20T03:23:35.570Z,100907.84
2022-09-20T03:26:30.226Z,100898.06
2022-09-20T03:29:02.789Z,100903.38
2022-09-20T03:32:01.605Z,100903.28
2022-09-20T03:34:53.721Z,100901.03
2022-09-20T03:37:20.335Z,100901.38
2022-09-20T03:40:02.134Z,100907.78
2022-09-20T03:42:29.839Z,100900.25
2022-09-20T03:45:18.901Z,100911.66
2022-09-20T03:48:23.918Z,100911.19
2022-09-20T03:51:29.122Z,100917.09
2022-09-20T03:54:42.588Z,100908.44
2022-09-20T03:57:39.272Z,100910.63
2022-09-20T04:00:15.478Z,100907.56
2022-09-20T04:03:23.792Z,100906.97
2022-09-20T04:06:17.841Z,100907.19
2022-09-20T04:09:16.032Z,100919.47
2022-09-20T04:11:59.629Z,100927.25
2022-09-20T04:14:41.907Z,100907.56
2022-09-20T04:17:50.418Z,100924.81
2022-09-20T04:20:34.840Z,100924.09
2022-09-20T04:23:12.167Z,100918.53
2022-09-20T04:25:45.795Z,100925.75
2022-09-20T04:28:27.000Z,100929.97
2022-09-20T04:31:00.009Z,100930.88
2022-09-20T04:33:41.547Z,100934.09
2022-09-20T04:36:30.960Z,100932.41
2022-09-20T04:39:24.141Z,100938.03
2022-09-20T04:42:16.764Z,100941.56
2022-09-20T04:45:08.308Z,100943.88
2022-09-20T04:48:20.655Z,100940.38
2022-09-20T04:51:31.553Z,100947.66
2022-09-20T04:53:58.294Z,100946.38
2022-09-20T04:56:51.135Z,100958.97
2022-09-20T04:59:39.916Z,100952.44
2022-09-20T05:02:15.509Z,100953.47
2022-09-20T05:05:06.242Z,100957.81
2022-09-20T05:08:04.376Z,100956.13
2022-09-20T05:11:06.172Z,100961.41
2022-09-20T05:14:03.420Z,100971.88
2022-09-20T05:16:52.662Z,100981.50
2022-09-20T05:19:30.344Z,100980.38
2022-09-20T05:22:32.430Z,100994.59
2022-09-20T05:25:01.734Z,100988.78
2022-09-20T05:27:54.071Z,100989.91
2022-09-20T05:30:41.470Z,100994.19
2022-09-20T05:33:35.344Z,100986.72
2022-09-20T05:36:19.414Z,100992.00
2022-09-20T05:38:58.022Z,100989.56
2022-09-20T05:41:37.372Z,100997.97
2022-09-20T05:44:24.150Z,100997.19
2022-09-20T05:47:21.810Z,101011.34
2022-09-20T05:50:15.969Z,101008.56
2022-09-20T05:53:02.518Z,101012.44
2022-09-20T05:55:47.431Z,101016.06
2022-09-20T05:58:16.743Z,101016.63
2022-09-20T06:00:53.238Z,101018.25
2022-09-20T06:03:47.305Z,101012.03
2022-09-20T06:06:40.370Z,101013.38
2022-09-20T06:09:26.320Z,101018.00
2022-09-20T06:12:22.722Z,101021.63
2022-09-20T06:15:03.160Z,101020.25
2022-09-20T06:17:35.727Z,101030.34
2022-09-20T06:20:20.712Z,101036.00
2022-09-20T06:22:52.270Z,101028.84
2022-09-20T06:25:27.951Z,101038.75
2022-09-20T06:28:22.442Z,101038.66
2022-09-20T06:30:54.676Z,101041.84
2022-09-20T06:33:26.104Z,101044.84
2022-09-20T06:36:30.190Z,101045.88
2022-09-20T06:39:21.472Z,101042.84
2022-09-20T06:41:51.453Z,101045.59
2022-09-20T06:44:18.054Z,101050.34
2022-09-20T06:46:44.692Z,101054.22
2022-09-20T06:49:11.306Z,101051.78
2022-09-20T06:51:39.438Z,101063.34
2022-09-20T06:54:11.578Z,101059.88
2022-09-20T06:56:38.455Z,101073.66
2022-09-20T06:59:10.407Z,101069.84
2022-09-20T07:01:37.763Z,101080.38
2022-09-20T07:04:06.173Z,101085.31
2022-09-20T07:06:33.714Z,101076.91
2022-09-20T07:09:00.405Z,101079.91
2022-09-20T07:11:26.958Z,101082.53
2022-09-20T07:13:55.670Z,101082.88
2022-09-20T07:16:22.360Z,101080.97
2022-09-20T07:18:49.583Z,101085.06
2022-09-20T07:21:20.426Z,101087.56
2022-09-20T07:23:50.519Z,101085.47
2022-09-20T07:26:28.785Z,101093.22
2022-09-20T07:28:56.395Z,101094.59
2022-09-20T07:31:26.085Z,101098.25
2022-09-20T07:33:52.886Z,101108.13
2022-09-20T07:36:19.713Z,101098.16
2022-09-20T07:38:51.394Z,101109.91
2022-09-20T07:41:19.077Z,101108.84
2022-09-20T07:43:46.644Z,101111.84
2022-09-20T07:46:16.398Z,101114.91
2022-09-20T07:48:43.056Z,101127.88
2022-09-20T07:51:12.698Z,101122.09
2022-09-20T07:53:40.581Z,101126.69
2022-09-20T07:56:14.288Z,101126.50
2022-09-20T07:58:41.901Z,101129.94
2022-09-20T08:01:11.343Z,101131.50
2022-09-20T08:03:38.130Z,101138.97
2022-09-20T08:06:10.296Z,101141.38
2022-09-20T08:08:39.240Z,101139.91
2022-09-20T08:11:08.613Z,101142.13
2022-09-20T08:16:32.351Z,101138.03
2022-09-20T08:19:01.491Z,101142.22
2022-09-20T08:21:33.541Z,101145.28
2022-09-20T08:24:00.796Z,101143.38
2022-09-20T08:26:31.424Z,101155.41
2022-09-20T08:29:02.154Z,101140.63
2022-09-20T08:31:37.208Z,101152.50
2022-09-20T08:34:06.686Z,101155.97
2022-09-20T08:36:36.709Z,101160.47
2022-09-20T08:41:56.388Z,101159.41
2022-09-20T08:44:28.601Z,101151.81
2022-09-20T08:47:03.213Z,101157.66
2022-09-20T08:49:30.676Z,101161.63
2022-09-20T08:51:58.998Z,101161.94
2022-09-20T08:54:33.241Z,101158.00
2022-09-20T08:57:07.072Z,101167.13
2022-09-20T08:59:33.685Z,101171.84
2022-09-20T09:02:01.205Z,101177.97
2022-09-20T09:04:36.436Z,101180.00
2022-09-20T09:07:03.628Z,101178.44
2022-09-20T09:09:30.772Z,101176.84
2022-09-20T09:11:58.785Z,101178.97
2022-09-20T09:14:45.693Z,101183.69
2022-09-20T09:17:14.676Z,101172.38
2022-09-20T09:19:50.157Z,101181.34
2022-09-20T09:22:25.412Z,101189.50
2022-09-20T09:25:32.255Z,101194.72
2022-09-20T09:28:02.342Z,101185.63
2022-09-20T09:30:32.575Z,101198.72
2022-09-20T09:33:14.433Z,101190.53
2022-09-20T09:35:41.515Z,101199.47
2022-09-20T09:38:21.634Z,101201.44
2022-09-20T09:40:57.242Z,101196.72
2022-09-20T09:43:30.154Z,101203.31
2022-09-20T09:46:17.720Z,101199.84
2022-09-20T09:48:49.875Z,101202.22
2022-09-20T09:51:22.009Z,101216.38
2022-09-20T09:53:51.761Z,101206.53
2022-09-20T09:56:36.983Z,101203.88
2022-09-20T09:59:31.232Z,101204.56
2022-09-20T10:02:08.255Z,101207.66
2022-09-20T10:04:44.768Z,101207.03
2022-09-20T10:07:39.517Z,101200.88
2022-09-20T10:10:32.402Z,101201.47
2022-09-20T10:13:21.726Z,101201.03
2022-09-20T10:16:00.437Z,101210.38
2022-09-20T10:18:53.069Z,101207.97
2022-09-20T10:21:31.667Z,101218.44
2022-09-20T10:24:14.882Z,101216.34
2022-09-20T10:27:00.279Z,101217.59
2022-09-20T10:29:51.334Z,101215.19
2022-09-20T10:32:24.078Z,101223.22
2022-09-20T10:35:19.755Z,101221.88
2022-09-20T10:38:05.909Z,101221.19
2022-09-20T10:40:59.266Z,101220.44
2022-09-20T10:43:48.571Z,101221.00
2022-09-20T10:46:43.700Z,101224.97
2022-09-20T10:49:34.789Z,101231.34
2022-09-20T10:52:36.236Z,101232.28
2022-09-20T10:55:34.910Z,101234.94
2022-09-20T10:58:40.515Z,101233.16
2022-09-20T11:01:23.370Z,101233.53
2022-09-20T11:04:22.205Z,101233.19
2022-09-20T11:07:03.080Z,101235.97
2022-09-20T11:09:35.861Z,101250.69
2022-09-20T11:12:05.916Z,101250.63
2022-09-20T11:15:00.529Z,101242.66
2022-09-20T11:17:34.768Z,101245.88
2022-09-20T11:20:20.959Z,101248.72
2022-09-20T11:23:01.034Z,101250.66
2022-09-20T11:25:44.400Z,101249.69
2022-09-20T11:28:27.367Z,101249.88
2022-09-20T11:31:09.701Z,101249.63
2022-09-20T11:33:49.214Z,101252.69
2022-09-20T11:36:39.586Z,101256.03
2022-09-20T11:39:44.379Z,101253.88
2022-09-20T11:42:20.271Z,101261.78
2022-09-20T11:44:47.319Z,101258.78
2022-09-20T11:47:54.386Z,101252.81
2022-09-20T11:50:42.527Z,101263.69
2022-09-20T11:53:37.229Z,101269.44
2022-09-20T11:56:08.784Z,101271.47
2022-09-20T11:58:57.790Z,101280.44
2022-09-20T12:01:28.940Z,101274.75
2022-09-20T12:04:27.913Z,101278.00
2022-09-20T12:06:47.589Z,101269.72
2022-09-20T12:09:29.193Z,101288.19
2022-09-20T12:11:57.095Z,101281.25
2022-09-20T12:14:27.561Z,101297.03
2022-09-20T12:16:55.630Z,101287.22
2022-09-20T12:19:22.184Z,101281.69
2022-09-20T12:22:00.977Z,101284.25
2022-09-20T12:24:33.894Z,101283.47
2022-09-20T12:27:41.161Z,101294.91
2022-09-20T12:30:22.307Z,101295.75
2022-09-20T12:32:53.953Z,101300.44
2022-09-20T12:35:35.504Z,101300.03
2022-09-20T12:38:20.172Z,101304.44
2022-09-20T12:41:05.379Z,101302.28
2022-09-20T12:43:34.384Z,101299.44
2022-09-20T12:46:06.357Z,101299.53
2022-09-20T12:48:38.907Z,101311.09
2022-09-20T12:51:33.085Z,101308.72
2022-09-20T12:54:06.821Z,101315.97
2022-09-20T12:56:37.843Z,101314.25
2022-09-20T12:59:18.872Z,101311.94
2022-09-20T13:01:46.087Z,101311.84
2022-09-20T13:04:40.896Z,101316.00
2022-09-20T13:07:34.894Z,101319.31
2022-09-20T13:10:17.835Z,101315.16
2022-09-20T13:12:45.649Z,101320.34
2022-09-20T13:15:19.724Z,101317.63
2022-09-20T13:17:51.956Z,101316.59
2022-09-20T13:20:25.766Z,101314.97
2022-09-20T13:22:57.115Z,101308.88
2022-09-20T13:25:31.870Z,101313.06
2022-09-20T13:28:31.424Z,101317.34
2022-09-20T13:31:36.724Z,101323.97
2022-09-20T13:34:14.368Z,101321.72
2022-09-20T13:36:43.514Z,101327.88
2022-09-20T13:39:25.842Z,101330.00
2022-09-20T13:41:53.063Z,101330.84
2022-09-20T13:44:20.136Z,101334.44
2022-09-20T13:46:46.632Z,101334.94
2022-09-20T13:49:20.708Z,101338.13
2022-09-20T13:51:48.881Z,101349.19
2022-09-20T13:54:27.363Z,101349.75
2022-09-20T13:57:11.336Z,101347.75
2022-09-20T13:59:47.239Z,101343.31
2022-09-20T14:02:32.429Z,101349.53
2022-09-20T14:05:15.605Z,101348.69
2022-09-20T14:07:46.764Z,101350.56
2022-09-20T14:10:31.691Z,101351.31
2022-09-20T14:13:02.183Z,101359.53
2022-09-20T14:15:35.939Z,101353.44
2022-09-20T14:18:04.723Z,101353.22
2022-09-20T14:20:31.931Z,101358.56
2022-09-20T14:22:59.351Z,101360.47
2022-09-20T14:25:27.431Z,101355.00
2022-09-20T14:28:24.566Z,101358.47
2022-09-20T14:31:12.937Z,101350.34
2022-09-20T14:33:54.900Z,101353.22
2022-09-20T14:36:25.508Z,101356.56
2022-09-20T14:38:57.648Z,101356.00
2022-09-20T14:41:39.421Z,101360.75
2022-09-20T14:44:16.296Z,101363.25
2022-09-20T14:46:43.114Z,101354.06
2022-09-20T14:49:26.176Z,101364.31
2022-09-20T14:51:53.726Z,101367.09
2022-09-20T14:54:27.476Z,101368.19
2022-09-20T14:56:57.397Z,101374.75
2022-09-20T14:59:30.380Z,101372.19
2022-09-20T15:02:07.196Z,101379.19
2022-09-20T15:04:37.784Z,101376.25
2022-09-20T15:07:11.426Z,101376.94
2022-09-20T15:09:38.012Z,101376.28
2022-09-20T15:12:16.069Z,101375.97
2022-09-20T15:14:42.924Z,101377.50
2022-09-20T15:17:15.192Z,101376.56
2022-09-20T15:19:41.868Z,101378.91
2022-09-20T15:22:09.967Z,101376.69
2022-09-20T15:24:36.578Z,101388.06
2022-09-20T15:27:03.460Z,101383.00
2022-09-20T15:29:30.147Z,101389.84
2022-09-20T15:31:56.887Z,101390.63
2022-09-20T15:34:25.526Z,101396.66
2022-09-20T15:36:53.898Z,101402.72
2022-09-20T15:39:22.276Z,101391.94
2022-09-20T15:41:52.292Z,101399.94
2022-09-20T15:44:19.008Z,101394.81
2022-09-20T15:46:45.686Z,101389.94
2022-09-20T15:49:12.605Z,101404.44
2022-09-20T15:51:39.467Z,101407.69
2022-09-20T15:54:07.616Z,101414.00
2022-09-20T15:56:36.560Z,101411.47
2022-09-20T15:59:05.495Z,101409.91
2022-09-20T16:01:37.712Z,101404.81
2022-09-20T16:04:11.278Z,101407.34
2022-09-20T16:06:39.801Z,101403.88
2022-09-20T16:09:07.536Z,101414.44
2022-09-20T16:11:35.091Z,101421.97
2022-09-20T16:14:01.996Z,101432.25
2022-09-20T16:16:33.180Z,101431.44
2022-09-20T16:19:22.532Z,101427.13
2022-09-20T16:21:59.288Z,101433.25
2022-09-20T16:24:30.795Z,101444.28
2022-09-20T16:26:58.122Z,101434.28
2022-09-20T16:29:26.120Z,101441.69
2022-09-20T16:31:55.696Z,101443.03
2022-09-20T16:34:23.895Z,101442.41
2022-09-20T16:36:54.151Z,101449.94
2022-09-20T16:39:26.168Z,101449.13
2022-09-20T16:41:53.515Z,101455.59
2022-09-20T16:44:20.065Z,101454.47
2022-09-20T16:46:47.238Z,101452.09
2022-09-20T16:49:17.071Z,101455.47
2022-09-20T16:51:47.065Z,101469.63
2022-09-20T16:54:15.223Z,101469.09
2022-09-20T16:56:47.779Z,101469.06
2022-09-20T16:59:15.898Z,101472.63
2022-09-20T17:01:42.946Z,101478.13
2022-09-20T17:04:10.453Z,101473.28
2022-09-20T17:06:38.137Z,101480.81
2022-09-20T17:09:06.635Z,101481.97
2022-09-20T17:11:42.168Z,101491.31
2022-09-20T17:14:09.688Z,101493.66
2022-09-20T17:16:38.969Z,101495.81
2022-09-20T17:19:11.372Z,101500.28
2022-09-20T17:21:44.693Z,101501.31
2022-09-20T17:24:11.799Z,101499.81
2022-09-20T17:26:40.811Z,101506.50
2022-09-20T17:29:11.409Z,101508.94
2022-09-20T17:31:41.675Z,101506.81
2022-09-20T17:34:11.019Z,101512.16
2022-09-20T17:36:41.296Z,101517.81
2022-09-20T17:39:12.898Z,101508.69
2022-09-20T17:41:41.508Z,101513.06
2022-09-20T17:44:09.870Z,101518.66
2022-09-20T17:46:37.825Z,101519.53
2022-09-20T17:49:14.179Z,101521.94
2022-09-20T17:51:43.441Z,101530.56
2022-09-20T17:54:14.238Z,101527.28
2022-09-20T17:56:47.071Z,101528.66
2022-09-20T17:59:17.774Z,101538.78
2022-09-20T18:01:46.281Z,101533.97
2022-09-20T18:04:13.153Z,101538.63
2022-09-20T18:06:44.206Z,101544.97
2022-09-20T18:09:14.290Z,101540.94
2022-09-20T18:11:48.712Z,101539.63
2022-09-20T18:14:17.656Z,101546.34
2022-09-20T18:16:45.430Z,101545.00
2022-09-20T18:19:12.532Z,101554.72
2022-09-20T18:21:40.795Z,101545.63
2022-09-20T18:24:09.775Z,101558.69
2022-09-20T18:26:38.056Z,101553.63
2022-09-20T18:29:11.075Z,101565.50
2022-09-20T18:31:42.981Z,101575.66
2022-09-20T18:34:20.779Z,101563.75
2022-09-20T18:36:53.287Z,101567.88
2022-09-20T18:39:24.887Z,101574.00
2022-09-20T18:41:53.211Z,101564.94
2022-09-20T18:44:21.082Z,101570.31
2022-09-20T18:46:48.756Z,101573.94
2022-09-20T18:49:16.820Z,101572.34
2022-09-20T18:51:44.373Z,101573.53
2022-09-20T18:54:11.878Z,101571.13
2022-09-20T18:56:42.137Z,101568.63
2022-09-20T18:59:20.394Z,101579.06
2022-09-20T19:02:08.263Z,101581.69
2022-09-20T19:04:59.755Z,101577.72
2022-09-20T19:07:47.939Z,101596.00
2022-09-20T19:10:45.791Z,101584.88
2022-09-20T19:13:30.990Z,101589.09
2022-09-20T19:16:30.502Z,101589.09
2022-09-20T19:19:17.918Z,101594.41
2022-09-20T19:21:58.711Z,101591.19
2022-09-20T19:24:41.834Z,101599.03
2022-09-20T19:27:13.615Z,101590.59
2022-09-20T19:29:43.510Z,101597.75
2022-09-20T19:32:16.982Z,101595.97
2022-09-20T19:34:45.059Z,101604.81
2022-09-20T19:37:47.301Z,101605.13
2022-09-20T19:40:35.039Z,101611.69
2022-09-20T19:43:23.620Z,101609.06
2022-09-20T19:46:13.437Z,101611.75
2022-09-20T19:48:47.079Z,101607.84
2022-09-20T19:51:14.979Z,101602.84
2022-09-20T19:53:44.318Z,101616.91
2022-09-20T19:56:29.588Z,101617.94
2022-09-20T19:58:56.511Z,101612.72
2022-09-20T20:01:24.993Z,101621.66
2022-09-20T20:03:55.852Z,101622.59
2022-09-20T20:06:55.968Z,101625.81
2022-09-20T20:09:46.404Z,101635.63
2022-09-20T20:12:22.597Z,101639.25
2022-09-20T20:15:12.430Z,101642.31
2022-09-20T20:18:04.752Z,101644.16
2022-09-20T20:20:40.209Z,101653.06
2022-09-20T20:23:15.968Z,101649.53
2022-09-20T20:25:51.709Z,101648.16
2022-09-20T20:28:18.342Z,101648.00
2022-09-20T20:30:44.946Z,101657.06
2022-09-20T20:33:16.221Z,101651.91
2022-09-20T20:35:45.774Z,101642.25
2022-09-20T20:38:12.663Z,101655.97
2022-09-20T20:40:40.254Z,101656.91
2022-09-20T20:43:09.798Z,101655.97
2022-09-20T20:45:37.012Z,101659.25
2022-09-20T20:48:03.755Z,101660.66
2022-09-20T20:50:30.460Z,101664.00
2022-09-20T20:52:57.349Z,101661.91
2022-09-20T20:55:24.653Z,101666.25
2022-09-20T20:57:58.321Z,101668.81
2022-09-20T21:00:30.848Z,101670.56
2022-09-20T21:03:00.970Z,101678.25
2022-09-20T21:05:29.840Z,101676.91
2022-09-20T21:07:57.916Z,101674.69
2022-09-20T21:10:24.655Z,101679.25
2022-09-20T21:12:54.370Z,101671.81
2022-09-20T21:15:21.439Z,101673.94
2022-09-20T21:17:54.937Z,101679.78
2022-09-20T21:20:22.461Z,101678.91
2022-09-20T21:22:49.178Z,101677.31
2022-09-20T21:25:15.787Z,101676.59
2022-09-20T21:27:42.715Z,101682.28
2022-09-20T21:30:09.841Z,101672.66
2022-09-20T21:32:36.584Z,101688.97
2022-09-20T21:35:03.307Z,101690.81
2022-09-20T21:37:30.023Z,101687.38
2022-09-20T21:39:56.588Z,101685.91
2022-09-20T21:42:23.324Z,101683.94
2022-09-20T21:44:51.641Z,101690.75
2022-09-20T21:47:20.309Z,101690.47
2022-09-20T21:49:47.582Z,101700.88
2022-09-20T21:52:14.450Z,101696.66
2022-09-20T21:54:41.114Z,101694.41
2022-09-20T21:57:07.920Z,101702.19
2022-09-20T21:59:34.566Z,101703.78
2022-09-20T22:02:01.149Z,101708.44
2022-09-20T22:04:28.883Z,101715.34
2022-09-20T22:06:55.500Z,101713.69
2022-09-20T22:09:24.035Z,101705.19
2022-09-20T22:11:50.758Z,101705.97
2022-09-20T22:14:19.503Z,101714.91
2022-09-20T22:16:47.656Z,101710.00
2022-09-20T22:19:17.007Z,101710.69
2022-09-20T22:21:46.341Z,101710.69
2022-09-20T22:24:14.780Z,101715.03
2022-09-20T22:26:47.477Z,101713.34
2022-09-20T22:29:15.004Z,101710.00
2022-09-20T22:31:47.056Z,101706.53
2022-09-20T22:34:16.126Z,101709.81
2022-09-20T22:36:43.028Z,101712.38
2022-09-20T22:39:11.326Z,101714.13
2022-09-20T22:41:41.132Z,101711.47
2022-09-20T22:44:08.108Z,101709.53
2022-09-20T22:46:35.291Z,101709.63
2022-09-20T22:49:04.689Z,101707.94
2022-09-20T22:51:33.196Z,101709.53
2022-09-20T22:54:00.675Z,101720.75
2022-09-20T22:56:29.584Z,101713.00
2022-09-20T22:58:59.995Z,101707.94
2022-09-20T23:01:29.350Z,101709.63
2022-09-20T23:04:00.878Z,101717.38
2022-09-20T23:06:34.064Z,101711.09
2022-09-20T23:09:02.628Z,101711.09
2022-09-20T23:11:29.830Z,101705.97
2022-09-20T23:14:01.610Z,101704.16
2022-09-20T23:16:33.412Z,101716.13
2022-09-20T23:19:03.043Z,101714.44
2022-09-20T23:21:30.030Z,101714.44
2022-09-20T23:24:05.274Z,101717.94
2022-09-20T23:26:34.204Z,101717.03
2022-09-20T23:29:10.875Z,101716.16
2022-09-20T23:31:39.230Z,101720.41
2022-09-20T23:34:07.559Z,101720.56
2022-09-20T23:36:37.995Z,101724.13
2022-09-20T23:39:06.104Z,101728.38
2022-09-20T23:41:32.954Z,101729.34
2022-09-20T23:43:59.715Z,101720.59
2022-09-20T23:46:27.241Z,101723.16
2022-09-20T23:48:54.477Z,101732.88
2022-09-20T23:51:26.198Z,101732.94
2022-09-20T23:53:53.603Z,101729.56
2022-09-20T23:56:21.780Z,101731.31
2022-09-20T23:58:48.715Z,101732.44
